sensor_id;sensor_type;location;lat;lon;timestamp;P1;durP1;ratioP1;P2;durP2;ratioP2
11189;SDS011;5651;50.926;4.718;2023-04-24T00:01:34;22.75;;;13.38;;
11189;SDS011;5651;50.926;4.718;2023-04-24T00:04:02;21.95;;;13.77;;
11189;SDS011;5651;50.926;4.718;2023-04-24T00:06:29;25.08;;;14.65;;
11189;SDS011;5651;50.926;4.718;2023-04-24T00:09:01;24.23;;;14.25;;
11189;SDS011;5651;50.926;4.718;2023-04-24T00:11:28;22.30;;;12.50;;
11189;SDS011;5651;50.926;4.718;2023-04-24T00:13:55;20.73;;;11.25;;
11189;SDS011;5651;50.926;4.718;2023-04-24T00:16:22;23.50;;;13.95;;
11189;SDS011;5651;50.926;4.718;2023-04-24T00:18:48;22.83;;;13.73;;
11189;SDS011;5651;50.926;4.718;2023-04-24T00:21:14;26.52;;;14.00;;
11189;SDS011;5651;50.926;4.718;2023-04-24T00:23:43;24.23;;;13.60;;
11189;SDS011;5651;50.926;4.718;2023-04-24T00:26:09;23.25;;;12.95;;
11189;SDS011;5651;50.926;4.718;2023-04-24T00:28:35;23.70;;;15.40;;
11189;SDS011;5651;50.926;4.718;2023-04-24T00:31:01;24.33;;;13.25;;
11189;SDS011;5651;50.926;4.718;2023-04-24T00:33:27;31.73;;;13.40;;
11189;SDS011;5651;50.926;4.718;2023-04-24T00:35:53;22.17;;;13.77;;
11189;SDS011;5651;50.926;4.718;2023-04-24T00:38:19;28.13;;;14.63;;
11189;SDS011;5651;50.926;4.718;2023-04-24T00:40:45;27.90;;;15.50;;
11189;SDS011;5651;50.926;4.718;2023-04-24T00:43:11;26.08;;;13.93;;
11189;SDS011;5651;50.926;4.718;2023-04-24T00:45:37;22.80;;;13.77;;
11189;SDS011;5651;50.926;4.718;2023-04-24T00:48:03;24.63;;;14.77;;
11189;SDS011;5651;50.926;4.718;2023-04-24T00:50:29;20.65;;;13.23;;
11189;SDS011;5651;50.926;4.718;2023-04-24T00:52:55;23.23;;;14.57;;
11189;SDS011;5651;50.926;4.718;2023-04-24T00:55:22;22.20;;;14.00;;
11189;SDS011;5651;50.926;4.718;2023-04-24T00:57:50;26.20;;;13.35;;
11189;SDS011;5651;50.926;4.718;2023-04-24T01:00:16;24.50;;;14.07;;
11189;SDS011;5651;50.926;4.718;2023-04-24T01:02:45;26.88;;;14.38;;
11189;SDS011;5651;50.926;4.718;2023-04-24T01:05:12;24.50;;;14.73;;
11189;SDS011;5651;50.926;4.718;2023-04-24T01:07:39;21.73;;;13.07;;
11189;SDS011;5651;50.926;4.718;2023-04-24T01:10:09;20.50;;;13.02;;
11189;SDS011;5651;50.926;4.718;2023-04-24T01:12:36;25.13;;;15.13;;
11189;SDS011;5651;50.926;4.718;2023-04-24T01:15:02;22.15;;;14.55;;
11189;SDS011;5651;50.926;4.718;2023-04-24T01:17:29;22.63;;;14.25;;
11189;SDS011;5651;50.926;4.718;2023-04-24T01:19:56;25.58;;;14.38;;
11189;SDS011;5651;50.926;4.718;2023-04-24T01:22:22;25.30;;;14.25;;
11189;SDS011;5651;50.926;4.718;2023-04-24T01:24:48;24.00;;;13.73;;
11189;SDS011;5651;50.926;4.718;2023-04-24T01:27:14;25.80;;;14.43;;
11189;SDS011;5651;50.926;4.718;2023-04-24T01:29:40;22.52;;;14.30;;
11189;SDS011;5651;50.926;4.718;2023-04-24T01:32:06;19.27;;;12.02;;
11189;SDS011;5651;50.926;4.718;2023-04-24T01:34:32;24.15;;;14.65;;
11189;SDS011;5651;50.926;4.718;2023-04-24T01:36:59;19.00;;;11.95;;
11189;SDS011;5651;50.926;4.718;2023-04-24T01:39:25;23.23;;;13.13;;
11189;SDS011;5651;50.926;4.718;2023-04-24T01:41:54;22.30;;;13.57;;
11189;SDS011;5651;50.926;4.718;2023-04-24T01:44:20;21.35;;;12.02;;
11189;SDS011;5651;50.926;4.718;2023-04-24T01:46:47;18.50;;;11.25;;
11189;SDS011;5651;50.926;4.718;2023-04-24T01:49:13;20.00;;;12.38;;
11189;SDS011;5651;50.926;4.718;2023-04-24T01:51:39;20.83;;;12.52;;
11189;SDS011;5651;50.926;4.718;2023-04-24T01:54:05;21.83;;;12.30;;
11189;SDS011;5651;50.926;4.718;2023-04-24T01:56:32;19.05;;;12.27;;
11189;SDS011;5651;50.926;4.718;2023-04-24T01:58:59;15.85;;;10.85;;
11189;SDS011;5651;50.926;4.718;2023-04-24T02:01:25;20.77;;;9.90;;
11189;SDS011;5651;50.926;4.718;2023-04-24T02:03:51;20.15;;;11.27;;
11189;SDS011;5651;50.926;4.718;2023-04-24T02:06:17;17.27;;;9.85;;
11189;SDS011;5651;50.926;4.718;2023-04-24T02:08:43;17.73;;;10.30;;
11189;SDS011;5651;50.926;4.718;2023-04-24T02:11:09;15.75;;;9.88;;
11189;SDS011;5651;50.926;4.718;2023-04-24T02:13:35;18.77;;;10.10;;
11189;SDS011;5651;50.926;4.718;2023-04-24T02:16:01;15.32;;;9.60;;
11189;SDS011;5651;50.926;4.718;2023-04-24T02:18:29;18.77;;;10.65;;
11189;SDS011;5651;50.926;4.718;2023-04-24T02:20:55;13.82;;;9.05;;
11189;SDS011;5651;50.926;4.718;2023-04-24T02:23:21;14.90;;;10.43;;
11189;SDS011;5651;50.926;4.718;2023-04-24T02:25:47;15.40;;;9.77;;
11189;SDS011;5651;50.926;4.718;2023-04-24T02:28:13;17.95;;;9.68;;
11189;SDS011;5651;50.926;4.718;2023-04-24T02:30:39;17.27;;;10.70;;
11189;SDS011;5651;50.926;4.718;2023-04-24T02:33:04;17.38;;;11.05;;
11189;SDS011;5651;50.926;4.718;2023-04-24T02:35:30;17.88;;;10.40;;
11189;SDS011;5651;50.926;4.718;2023-04-24T02:37:56;19.88;;;12.02;;
11189;SDS011;5651;50.926;4.718;2023-04-24T02:40:22;23.50;;;12.25;;
11189;SDS011;5651;50.926;4.718;2023-04-24T02:42:48;19.55;;;11.57;;
11189;SDS011;5651;50.926;4.718;2023-04-24T02:45:14;18.10;;;11.88;;
11189;SDS011;5651;50.926;4.718;2023-04-24T02:47:39;19.52;;;12.40;;
11189;SDS011;5651;50.926;4.718;2023-04-24T02:50:05;20.50;;;11.27;;
11189;SDS011;5651;50.926;4.718;2023-04-24T02:52:32;20.90;;;12.30;;
11189;SDS011;5651;50.926;4.718;2023-04-24T02:54:58;17.95;;;11.80;;
11189;SDS011;5651;50.926;4.718;2023-04-24T02:57:24;20.85;;;11.32;;
11189;SDS011;5651;50.926;4.718;2023-04-24T02:59:50;15.75;;;9.43;;
11189;SDS011;5651;50.926;4.718;2023-04-24T03:02:15;21.05;;;13.15;;
11189;SDS011;5651;50.926;4.718;2023-04-24T03:04:41;20.92;;;12.27;;
11189;SDS011;5651;50.926;4.718;2023-04-24T03:07:11;18.25;;;11.27;;
11189;SDS011;5651;50.926;4.718;2023-04-24T03:09:36;19.63;;;11.38;;
11189;SDS011;5651;50.926;4.718;2023-04-24T03:12:02;20.20;;;11.63;;
11189;SDS011;5651;50.926;4.718;2023-04-24T03:14:28;20.13;;;11.88;;
11189;SDS011;5651;50.926;4.718;2023-04-24T03:16:56;15.80;;;11.18;;
11189;SDS011;5651;50.926;4.718;2023-04-24T03:19:23;15.93;;;10.02;;
11189;SDS011;5651;50.926;4.718;2023-04-24T03:21:49;18.58;;;11.48;;
11189;SDS011;5651;50.926;4.718;2023-04-24T03:24:15;18.27;;;11.55;;
11189;SDS011;5651;50.926;4.718;2023-04-24T03:26:41;18.88;;;11.23;;
11189;SDS011;5651;50.926;4.718;2023-04-24T03:29:07;15.25;;;8.63;;
11189;SDS011;5651;50.926;4.718;2023-04-24T03:31:33;17.70;;;10.88;;
11189;SDS011;5651;50.926;4.718;2023-04-24T03:33:58;16.05;;;10.50;;
11189;SDS011;5651;50.926;4.718;2023-04-24T03:36:24;15.88;;;9.93;;
11189;SDS011;5651;50.926;4.718;2023-04-24T03:38:51;15.18;;;9.95;;
11189;SDS011;5651;50.926;4.718;2023-04-24T03:41:17;12.95;;;9.07;;
11189;SDS011;5651;50.926;4.718;2023-04-24T03:43:43;15.07;;;10.07;;
11189;SDS011;5651;50.926;4.718;2023-04-24T03:46:08;14.43;;;9.02;;
11189;SDS011;5651;50.926;4.718;2023-04-24T03:48:35;13.90;;;9.35;;
11189;SDS011;5651;50.926;4.718;2023-04-24T03:51:01;14.50;;;8.90;;
11189;SDS011;5651;50.926;4.718;2023-04-24T03:53:26;15.43;;;9.20;;
11189;SDS011;5651;50.926;4.718;2023-04-24T03:55:52;15.10;;;8.93;;
11189;SDS011;5651;50.926;4.718;2023-04-24T03:58:19;14.55;;;8.48;;
11189;SDS011;5651;50.926;4.718;2023-04-24T04:00:44;14.80;;;8.45;;
11189;SDS011;5651;50.926;4.718;2023-04-24T04:03:13;16.10;;;7.50;;
11189;SDS011;5651;50.926;4.718;2023-04-24T04:05:39;16.40;;;6.95;;
11189;SDS011;5651;50.926;4.718;2023-04-24T04:08:05;17.13;;;9.18;;
11189;SDS011;5651;50.926;4.718;2023-04-24T04:10:31;13.40;;;8.40;;
11189;SDS011;5651;50.926;4.718;2023-04-24T04:12:57;16.00;;;9.15;;
11189;SDS011;5651;50.926;4.718;2023-04-24T04:15:23;14.07;;;8.77;;
11189;SDS011;5651;50.926;4.718;2023-04-24T04:17:49;14.90;;;8.18;;
11189;SDS011;5651;50.926;4.718;2023-04-24T04:20:15;13.63;;;8.55;;
11189;SDS011;5651;50.926;4.718;2023-04-24T04:22:40;14.15;;;7.63;;
11189;SDS011;5651;50.926;4.718;2023-04-24T04:25:06;12.65;;;8.05;;
11189;SDS011;5651;50.926;4.718;2023-04-24T04:27:33;13.10;;;8.48;;
11189;SDS011;5651;50.926;4.718;2023-04-24T04:30:00;13.50;;;9.10;;
11189;SDS011;5651;50.926;4.718;2023-04-24T04:32:33;16.70;;;7.95;;
11189;SDS011;5651;50.926;4.718;2023-04-24T04:35:00;14.40;;;8.68;;
11189;SDS011;5651;50.926;4.718;2023-04-24T04:37:29;12.15;;;7.07;;
11189;SDS011;5651;50.926;4.718;2023-04-24T04:39:57;15.75;;;9.18;;
11189;SDS011;5651;50.926;4.718;2023-04-24T04:42:26;12.35;;;7.55;;
11189;SDS011;5651;50.926;4.718;2023-04-24T04:44:55;15.07;;;8.05;;
11189;SDS011;5651;50.926;4.718;2023-04-24T04:47:22;14.05;;;6.97;;
11189;SDS011;5651;50.926;4.718;2023-04-24T04:49:48;13.48;;;8.27;;
11189;SDS011;5651;50.926;4.718;2023-04-24T04:52:16;13.23;;;8.10;;
11189;SDS011;5651;50.926;4.718;2023-04-24T04:54:43;11.45;;;8.05;;
11189;SDS011;5651;50.926;4.718;2023-04-24T04:57:09;14.73;;;8.10;;
11189;SDS011;5651;50.926;4.718;2023-04-24T04:59:35;10.80;;;7.80;;
11189;SDS011;5651;50.926;4.718;2023-04-24T05:02:02;14.70;;;9.10;;
11189;SDS011;5651;50.926;4.718;2023-04-24T05:04:28;16.30;;;8.25;;
11189;SDS011;5651;50.926;4.718;2023-04-24T05:06:54;13.77;;;8.32;;
11189;SDS011;5651;50.926;4.718;2023-04-24T05:09:20;12.05;;;7.85;;
11189;SDS011;5651;50.926;4.718;2023-04-24T05:11:46;14.80;;;8.63;;
11189;SDS011;5651;50.926;4.718;2023-04-24T05:14:12;15.75;;;10.07;;
11189;SDS011;5651;50.926;4.718;2023-04-24T05:16:38;18.55;;;11.02;;
11189;SDS011;5651;50.926;4.718;2023-04-24T05:19:05;16.75;;;10.68;;
11189;SDS011;5651;50.926;4.718;2023-04-24T05:21:31;18.77;;;11.68;;
11189;SDS011;5651;50.926;4.718;2023-04-24T05:23:57;20.45;;;12.55;;
11189;SDS011;5651;50.926;4.718;2023-04-24T05:26:22;22.00;;;12.82;;
11189;SDS011;5651;50.926;4.718;2023-04-24T05:28:48;26.60;;;14.00;;
11189;SDS011;5651;50.926;4.718;2023-04-24T05:31:15;22.98;;;13.30;;
11189;SDS011;5651;50.926;4.718;2023-04-24T05:33:43;24.85;;;14.13;;
11189;SDS011;5651;50.926;4.718;2023-04-24T05:36:08;20.20;;;12.40;;
11189;SDS011;5651;50.926;4.718;2023-04-24T05:38:34;22.10;;;11.70;;
11189;SDS011;5651;50.926;4.718;2023-04-24T05:41:00;18.92;;;11.23;;
11189;SDS011;5651;50.926;4.718;2023-04-24T05:43:26;20.45;;;11.98;;
11189;SDS011;5651;50.926;4.718;2023-04-24T05:46:01;21.65;;;12.63;;
11189;SDS011;5651;50.926;4.718;2023-04-24T05:48:26;20.77;;;11.15;;
11189;SDS011;5651;50.926;4.718;2023-04-24T05:50:52;21.63;;;12.20;;
11189;SDS011;5651;50.926;4.718;2023-04-24T05:53:18;25.10;;;13.25;;
11189;SDS011;5651;50.926;4.718;2023-04-24T05:55:44;21.55;;;12.18;;
11189;SDS011;5651;50.926;4.718;2023-04-24T05:58:11;21.77;;;13.88;;
11189;SDS011;5651;50.926;4.718;2023-04-24T06:00:37;19.73;;;11.13;;
11189;SDS011;5651;50.926;4.718;2023-04-24T06:03:05;24.42;;;12.30;;
11189;SDS011;5651;50.926;4.718;2023-04-24T06:05:31;22.17;;;12.57;;
11189;SDS011;5651;50.926;4.718;2023-04-24T06:07:57;18.20;;;11.48;;
11189;SDS011;5651;50.926;4.718;2023-04-24T06:10:23;23.67;;;11.27;;
11189;SDS011;5651;50.926;4.718;2023-04-24T06:12:49;24.98;;;13.20;;
11189;SDS011;5651;50.926;4.718;2023-04-24T06:15:15;22.70;;;11.52;;
11189;SDS011;5651;50.926;4.718;2023-04-24T06:17:41;21.67;;;12.00;;
11189;SDS011;5651;50.926;4.718;2023-04-24T06:20:07;21.95;;;12.20;;
11189;SDS011;5651;50.926;4.718;2023-04-24T06:22:33;24.48;;;12.07;;
11189;SDS011;5651;50.926;4.718;2023-04-24T06:24:59;24.92;;;13.43;;
11189;SDS011;5651;50.926;4.718;2023-04-24T06:27:25;24.52;;;12.68;;
11189;SDS011;5651;50.926;4.718;2023-04-24T06:29:51;18.85;;;12.25;;
11189;SDS011;5651;50.926;4.718;2023-04-24T06:32:23;25.25;;;14.27;;
11189;SDS011;5651;50.926;4.718;2023-04-24T06:34:52;21.85;;;12.93;;
11189;SDS011;5651;50.926;4.718;2023-04-24T06:37:18;31.83;;;15.02;;
11189;SDS011;5651;50.926;4.718;2023-04-24T06:39:46;25.70;;;13.63;;
11189;SDS011;5651;50.926;4.718;2023-04-24T06:42:12;21.40;;;12.43;;
11189;SDS011;5651;50.926;4.718;2023-04-24T06:44:38;21.83;;;12.98;;
11189;SDS011;5651;50.926;4.718;2023-04-24T06:47:09;27.13;;;15.77;;
11189;SDS011;5651;50.926;4.718;2023-04-24T06:49:36;28.10;;;14.57;;
11189;SDS011;5651;50.926;4.718;2023-04-24T06:52:02;29.80;;;14.65;;
11189;SDS011;5651;50.926;4.718;2023-04-24T06:54:29;28.00;;;14.20;;
11189;SDS011;5651;50.926;4.718;2023-04-24T06:56:55;26.17;;;13.65;;
11189;SDS011;5651;50.926;4.718;2023-04-24T06:59:23;28.15;;;15.77;;
11189;SDS011;5651;50.926;4.718;2023-04-24T07:01:49;30.45;;;14.65;;
11189;SDS011;5651;50.926;4.718;2023-04-24T07:04:16;23.08;;;13.75;;
11189;SDS011;5651;50.926;4.718;2023-04-24T07:06:42;26.92;;;14.05;;
11189;SDS011;5651;50.926;4.718;2023-04-24T07:09:09;33.03;;;15.35;;
11189;SDS011;5651;50.926;4.718;2023-04-24T07:11:35;25.65;;;15.80;;
11189;SDS011;5651;50.926;4.718;2023-04-24T07:14:02;30.45;;;15.40;;
11189;SDS011;5651;50.926;4.718;2023-04-24T07:16:28;34.38;;;16.65;;
11189;SDS011;5651;50.926;4.718;2023-04-24T07:18:54;28.67;;;16.40;;
11189;SDS011;5651;50.926;4.718;2023-04-24T07:21:19;26.40;;;15.43;;
11189;SDS011;5651;50.926;4.718;2023-04-24T07:23:45;31.75;;;15.65;;
11189;SDS011;5651;50.926;4.718;2023-04-24T07:26:11;27.95;;;14.50;;
11189;SDS011;5651;50.926;4.718;2023-04-24T07:28:37;27.05;;;16.13;;
11189;SDS011;5651;50.926;4.718;2023-04-24T07:31:03;30.58;;;16.67;;
11189;SDS011;5651;50.926;4.718;2023-04-24T07:33:29;31.92;;;16.42;;
11189;SDS011;5651;50.926;4.718;2023-04-24T07:35:55;29.42;;;17.05;;
11189;SDS011;5651;50.926;4.718;2023-04-24T07:38:21;30.92;;;14.82;;
11189;SDS011;5651;50.926;4.718;2023-04-24T07:40:47;25.50;;;14.52;;
11189;SDS011;5651;50.926;4.718;2023-04-24T07:43:13;27.00;;;13.57;;
11189;SDS011;5651;50.926;4.718;2023-04-24T07:45:41;22.67;;;12.30;;
11189;SDS011;5651;50.926;4.718;2023-04-24T07:48:08;25.77;;;12.95;;
11189;SDS011;5651;50.926;4.718;2023-04-24T07:50:34;25.25;;;12.65;;
11189;SDS011;5651;50.926;4.718;2023-04-24T07:53:01;25.25;;;13.50;;
11189;SDS011;5651;50.926;4.718;2023-04-24T07:55:27;21.27;;;12.10;;
11189;SDS011;5651;50.926;4.718;2023-04-24T07:57:53;21.65;;;12.00;;
11189;SDS011;5651;50.926;4.718;2023-04-24T08:00:20;20.38;;;9.73;;
11189;SDS011;5651;50.926;4.718;2023-04-24T08:02:46;22.80;;;11.23;;
11189;SDS011;5651;50.926;4.718;2023-04-24T08:05:11;21.55;;;10.25;;
11189;SDS011;5651;50.926;4.718;2023-04-24T08:07:37;21.73;;;9.32;;
11189;SDS011;5651;50.926;4.718;2023-04-24T08:10:03;19.35;;;8.88;;
11189;SDS011;5651;50.926;4.718;2023-04-24T08:12:30;23.77;;;8.98;;
11189;SDS011;5651;50.926;4.718;2023-04-24T08:14:56;20.30;;;9.98;;
11189;SDS011;5651;50.926;4.718;2023-04-24T08:17:22;18.38;;;10.38;;
11189;SDS011;5651;50.926;4.718;2023-04-24T08:19:49;18.23;;;8.82;;
11189;SDS011;5651;50.926;4.718;2023-04-24T08:22:16;18.60;;;9.45;;
11189;SDS011;5651;50.926;4.718;2023-04-24T08:24:42;22.98;;;10.88;;
11189;SDS011;5651;50.926;4.718;2023-04-24T08:27:09;19.27;;;9.70;;
11189;SDS011;5651;50.926;4.718;2023-04-24T08:29:36;18.90;;;10.50;;
11189;SDS011;5651;50.926;4.718;2023-04-24T08:32:02;21.75;;;11.88;;
11189;SDS011;5651;50.926;4.718;2023-04-24T08:34:28;22.02;;;10.95;;
11189;SDS011;5651;50.926;4.718;2023-04-24T08:36:53;19.15;;;9.63;;
11189;SDS011;5651;50.926;4.718;2023-04-24T08:39:20;24.60;;;10.70;;
11189;SDS011;5651;50.926;4.718;2023-04-24T08:41:46;15.98;;;8.43;;
11189;SDS011;5651;50.926;4.718;2023-04-24T08:44:13;14.40;;;7.88;;
11189;SDS011;5651;50.926;4.718;2023-04-24T08:46:42;18.00;;;7.47;;
11189;SDS011;5651;50.926;4.718;2023-04-24T08:49:11;18.75;;;8.15;;
11189;SDS011;5651;50.926;4.718;2023-04-24T08:51:39;13.02;;;7.60;;
11189;SDS011;5651;50.926;4.718;2023-04-24T08:54:05;15.20;;;8.40;;
11189;SDS011;5651;50.926;4.718;2023-04-24T08:56:33;16.65;;;8.00;;
11189;SDS011;5651;50.926;4.718;2023-04-24T08:59:03;21.23;;;8.45;;
11189;SDS011;5651;50.926;4.718;2023-04-24T09:01:30;14.82;;;8.70;;
11189;SDS011;5651;50.926;4.718;2023-04-24T09:03:58;21.40;;;10.60;;
11189;SDS011;5651;50.926;4.718;2023-04-24T09:06:27;16.52;;;8.23;;
11189;SDS011;5651;50.926;4.718;2023-04-24T09:08:54;17.95;;;9.00;;
11189;SDS011;5651;50.926;4.718;2023-04-24T09:11:22;19.08;;;8.75;;
11189;SDS011;5651;50.926;4.718;2023-04-24T09:13:50;18.75;;;7.55;;
11189;SDS011;5651;50.926;4.718;2023-04-24T09:16:16;19.73;;;8.13;;
11189;SDS011;5651;50.926;4.718;2023-04-24T09:18:43;16.15;;;8.27;;
11189;SDS011;5651;50.926;4.718;2023-04-24T09:21:09;14.38;;;7.95;;
11189;SDS011;5651;50.926;4.718;2023-04-24T09:23:35;16.98;;;7.95;;
11189;SDS011;5651;50.926;4.718;2023-04-24T09:26:02;19.27;;;7.75;;
11189;SDS011;5651;50.926;4.718;2023-04-24T09:28:31;22.67;;;9.27;;
11189;SDS011;5651;50.926;4.718;2023-04-24T09:31:07;15.88;;;8.63;;
11189;SDS011;5651;50.926;4.718;2023-04-24T09:33:35;19.73;;;8.40;;
11189;SDS011;5651;50.926;4.718;2023-04-24T09:36:02;19.63;;;9.23;;
11189;SDS011;5651;50.926;4.718;2023-04-24T09:38:32;19.75;;;8.52;;
11189;SDS011;5651;50.926;4.718;2023-04-24T09:41:01;20.75;;;8.57;;
11189;SDS011;5651;50.926;4.718;2023-04-24T09:43:29;16.55;;;8.38;;
11189;SDS011;5651;50.926;4.718;2023-04-24T09:45:56;16.88;;;7.32;;
11189;SDS011;5651;50.926;4.718;2023-04-24T09:48:34;18.77;;;8.52;;
11189;SDS011;5651;50.926;4.718;2023-04-24T09:51:01;17.83;;;7.82;;
11189;SDS011;5651;50.926;4.718;2023-04-24T09:53:29;17.17;;;7.85;;
11189;SDS011;5651;50.926;4.718;2023-04-24T09:55:56;14.75;;;7.15;;
11189;SDS011;5651;50.926;4.718;2023-04-24T09:58:28;17.73;;;7.70;;
11189;SDS011;5651;50.926;4.718;2023-04-24T10:00:55;12.00;;;6.05;;
11189;SDS011;5651;50.926;4.718;2023-04-24T10:03:25;11.80;;;5.70;;
11189;SDS011;5651;50.926;4.718;2023-04-24T10:05:52;14.52;;;6.45;;
11189;SDS011;5651;50.926;4.718;2023-04-24T10:08:18;14.63;;;5.85;;
11189;SDS011;5651;50.926;4.718;2023-04-24T10:10:45;12.25;;;5.32;;
11189;SDS011;5651;50.926;4.718;2023-04-24T10:13:12;12.27;;;4.80;;
11189;SDS011;5651;50.926;4.718;2023-04-24T10:15:39;10.75;;;4.78;;
11189;SDS011;5651;50.926;4.718;2023-04-24T10:18:06;14.07;;;5.57;;
11189;SDS011;5651;50.926;4.718;2023-04-24T10:20:34;13.20;;;4.45;;
11189;SDS011;5651;50.926;4.718;2023-04-24T10:23:01;11.73;;;4.65;;
11189;SDS011;5651;50.926;4.718;2023-04-24T10:25:28;10.98;;;5.00;;
11189;SDS011;5651;50.926;4.718;2023-04-24T10:27:56;9.73;;;4.75;;
11189;SDS011;5651;50.926;4.718;2023-04-24T10:30:28;12.60;;;4.78;;
11189;SDS011;5651;50.926;4.718;2023-04-24T10:32:56;13.27;;;5.70;;
11189;SDS011;5651;50.926;4.718;2023-04-24T10:35:22;12.48;;;5.18;;
11189;SDS011;5651;50.926;4.718;2023-04-24T10:37:57;9.90;;;4.72;;
11189;SDS011;5651;50.926;4.718;2023-04-24T10:40:29;10.20;;;4.82;;
11189;SDS011;5651;50.926;4.718;2023-04-24T10:42:56;12.02;;;5.97;;
11189;SDS011;5651;50.926;4.718;2023-04-24T10:45:22;10.60;;;4.70;;
11189;SDS011;5651;50.926;4.718;2023-04-24T10:47:59;13.23;;;5.10;;
11189;SDS011;5651;50.926;4.718;2023-04-24T10:50:30;11.13;;;4.93;;
11189;SDS011;5651;50.926;4.718;2023-04-24T10:53:12;12.38;;;4.65;;
11189;SDS011;5651;50.926;4.718;2023-04-24T10:58:11;11.13;;;5.25;;
